sensor_id;sensor_type;location;lat;lon;timestamp;P1;durP1;ratioP1;P2;durP2;ratioP2
26048;SDS011;13822;51.568;5.086;2022-08-19T04:47:45;73.10;;;38.70;;
26048;SDS011;13822;51.568;5.086;2022-08-19T04:52:59;70.35;;;37.10;;
26048;SDS011;13822;51.568;5.086;2022-08-19T04:58:01;69.43;;;38.05;;
26048;SDS011;13822;51.568;5.086;2022-08-19T05:08:07;70.03;;;36.90;;
26048;SDS011;13822;51.568;5.086;2022-08-19T05:13:11;67.00;;;37.60;;
26048;SDS011;13822;51.568;5.086;2022-08-19T05:18:13;62.05;;;35.28;;
26048;SDS011;13822;51.568;5.086;2022-08-19T05:23:34;66.13;;;35.80;;
26048;SDS011;13822;51.568;5.086;2022-08-19T05:28:36;66.28;;;36.15;;
26048;SDS011;13822;51.568;5.086;2022-08-19T05:33:38;68.25;;;35.33;;
26048;SDS011;13822;51.568;5.086;2022-08-19T05:38:40;63.45;;;35.85;;
26048;SDS011;13822;51.568;5.086;2022-08-19T05:43:42;64.43;;;34.22;;
26048;SDS011;13822;51.568;5.086;2022-08-19T05:48:44;63.08;;;33.38;;
26048;SDS011;13822;51.568;5.086;2022-08-19T05:53:47;73.63;;;35.58;;
26048;SDS011;13822;51.568;5.086;2022-08-19T05:58:49;60.63;;;33.80;;
26048;SDS011;13822;51.568;5.086;2022-08-19T06:03:51;69.20;;;34.35;;
26048;SDS011;13822;51.568;5.086;2022-08-19T06:13:55;64.73;;;32.37;;
26048;SDS011;13822;51.568;5.086;2022-08-19T06:19:01;63.30;;;32.63;;
26048;SDS011;13822;51.568;5.086;2022-08-19T06:24:09;63.20;;;33.75;;
26048;SDS011;13822;51.568;5.086;2022-08-19T06:29:14;57.13;;;32.17;;
26048;SDS011;13822;51.568;5.086;2022-08-19T06:34:24;61.75;;;33.03;;
26048;SDS011;13822;51.568;5.086;2022-08-19T06:39:30;61.42;;;32.05;;
26048;SDS011;13822;51.568;5.086;2022-08-19T06:44:36;64.35;;;31.33;;
26048;SDS011;13822;51.568;5.086;2022-08-19T06:49:44;60.80;;;31.27;;
26048;SDS011;13822;51.568;5.086;2022-08-19T06:54:46;66.00;;;31.98;;
26048;SDS011;13822;51.568;5.086;2022-08-19T06:59:56;59.05;;;31.65;;
26048;SDS011;13822;51.568;5.086;2022-08-19T07:04:58;60.92;;;32.67;;
26048;SDS011;13822;51.568;5.086;2022-08-19T07:10:06;63.03;;;31.95;;
26048;SDS011;13822;51.568;5.086;2022-08-19T07:15:09;61.42;;;34.00;;
26048;SDS011;13822;51.568;5.086;2022-08-19T07:20:12;64.65;;;32.92;;
26048;SDS011;13822;51.568;5.086;2022-08-19T07:25:18;62.17;;;32.45;;
26048;SDS011;13822;51.568;5.086;2022-08-19T07:30:32;65.25;;;34.63;;
26048;SDS011;13822;51.568;5.086;2022-08-19T07:35:38;61.35;;;34.72;;
26048;SDS011;13822;51.568;5.086;2022-08-19T07:40:40;62.83;;;35.42;;
26048;SDS011;13822;51.568;5.086;2022-08-19T07:45:42;63.72;;;34.45;;
26048;SDS011;13822;51.568;5.086;2022-08-19T07:50:44;67.18;;;37.67;;
26048;SDS011;13822;51.568;5.086;2022-08-19T07:55:47;65.65;;;36.70;;
26048;SDS011;13822;51.568;5.086;2022-08-19T08:00:50;77.10;;;39.47;;
26048;SDS011;13822;51.568;5.086;2022-08-19T08:05:52;70.78;;;37.47;;
26048;SDS011;13822;51.568;5.086;2022-08-19T08:11:12;70.65;;;36.75;;
26048;SDS011;13822;51.568;5.086;2022-08-19T08:16:20;68.60;;;35.88;;
26048;SDS011;13822;51.568;5.086;2022-08-19T08:21:22;73.20;;;36.75;;
26048;SDS011;13822;51.568;5.086;2022-08-19T08:26:25;69.15;;;36.08;;
26048;SDS011;13822;51.568;5.086;2022-08-19T08:31:28;67.85;;;37.25;;
26048;SDS011;13822;51.568;5.086;2022-08-19T08:36:30;73.47;;;38.95;;
26048;SDS011;13822;51.568;5.086;2022-08-19T08:41:37;76.45;;;38.65;;
26048;SDS011;13822;51.568;5.086;2022-08-19T08:47:18;71.40;;;40.10;;
26048;SDS011;13822;51.568;5.086;2022-08-19T08:52:27;74.53;;;40.88;;
26048;SDS011;13822;51.568;5.086;2022-08-19T08:57:44;72.32;;;40.00;;
26048;SDS011;13822;51.568;5.086;2022-08-19T09:03:03;74.38;;;40.33;;
26048;SDS011;13822;51.568;5.086;2022-08-19T09:08:22;76.25;;;40.20;;
26048;SDS011;13822;51.568;5.086;2022-08-19T09:13:49;68.30;;;39.03;;
26048;SDS011;13822;51.568;5.086;2022-08-19T09:19:54;72.10;;;39.53;;
26048;SDS011;13822;51.568;5.086;2022-08-19T09:25:10;61.60;;;37.00;;
26048;SDS011;13822;51.568;5.086;2022-08-19T09:30:27;69.05;;;37.33;;
26048;SDS011;13822;51.568;5.086;2022-08-19T09:35:33;65.05;;;35.10;;
26048;SDS011;13822;51.568;5.086;2022-08-19T09:40:52;62.13;;;36.22;;
26048;SDS011;13822;51.568;5.086;2022-08-19T09:45:54;69.75;;;34.78;;
26048;SDS011;13822;51.568;5.086;2022-08-19T09:51:06;57.15;;;32.38;;
26048;SDS011;13822;51.568;5.086;2022-08-19T09:56:17;57.33;;;32.28;;
26048;SDS011;13822;51.568;5.086;2022-08-19T10:01:21;47.20;;;27.38;;
26048;SDS011;13822;51.568;5.086;2022-08-19T10:06:27;43.90;;;26.27;;
26048;SDS011;13822;51.568;5.086;2022-08-19T10:11:47;39.28;;;22.83;;
26048;SDS011;13822;51.568;5.086;2022-08-19T10:16:55;34.63;;;21.73;;
26048;SDS011;13822;51.568;5.086;2022-08-19T10:22:01;40.00;;;22.58;;
26048;SDS011;13822;51.568;5.086;2022-08-19T10:27:10;38.95;;;25.17;;
26048;SDS011;13822;51.568;5.086;2022-08-19T10:32:16;44.38;;;24.40;;
26048;SDS011;13822;51.568;5.086;2022-08-19T10:37:35;42.28;;;25.33;;
26048;SDS011;13822;51.568;5.086;2022-08-19T10:42:57;32.05;;;21.35;;
26048;SDS011;13822;51.568;5.086;2022-08-19T10:53:06;36.17;;;20.92;;
26048;SDS011;13822;51.568;5.086;2022-08-19T10:58:11;27.67;;;18.27;;
26048;SDS011;13822;51.568;5.086;2022-08-19T11:03:19;46.90;;;26.50;;
26048;SDS011;13822;51.568;5.086;2022-08-19T11:08:22;49.33;;;30.08;;
26048;SDS011;13822;51.568;5.086;2022-08-19T11:13:25;52.75;;;31.30;;
26048;SDS011;13822;51.568;5.086;2022-08-19T11:18:29;53.20;;;31.80;;
26048;SDS011;13822;51.568;5.086;2022-08-19T11:28:35;58.80;;;33.60;;
26048;SDS011;13822;51.568;5.086;2022-08-19T11:33:42;55.47;;;30.98;;
26048;SDS011;13822;51.568;5.086;2022-08-19T11:38:49;51.13;;;30.70;;
26048;SDS011;13822;51.568;5.086;2022-08-19T11:43:54;49.88;;;30.00;;
26048;SDS011;13822;51.568;5.086;2022-08-19T11:48:57;53.35;;;31.17;;
26048;SDS011;13822;51.568;5.086;2022-08-19T11:54:03;51.78;;;30.08;;
26048;SDS011;13822;51.568;5.086;2022-08-19T11:59:08;49.75;;;30.02;;
26048;SDS011;13822;51.568;5.086;2022-08-19T12:04:16;59.30;;;33.90;;
26048;SDS011;13822;51.568;5.086;2022-08-19T12:09:20;64.50;;;35.15;;
26048;SDS011;13822;51.568;5.086;2022-08-19T12:14:24;63.53;;;35.05;;
26048;SDS011;13822;51.568;5.086;2022-08-19T12:19:26;54.88;;;33.15;;
26048;SDS011;13822;51.568;5.086;2022-08-19T12:24:30;52.55;;;30.42;;
26048;SDS011;13822;51.568;5.086;2022-08-19T12:29:33;48.40;;;26.55;;
26048;SDS011;13822;51.568;5.086;2022-08-19T12:34:38;39.95;;;24.42;;
26048;SDS011;13822;51.568;5.086;2022-08-19T12:39:41;35.83;;;20.95;;
26048;SDS011;13822;51.568;5.086;2022-08-19T12:44:45;34.03;;;20.40;;
26048;SDS011;13822;51.568;5.086;2022-08-19T12:49:48;38.88;;;22.10;;
26048;SDS011;13822;51.568;5.086;2022-08-19T12:54:55;36.83;;;21.05;;
26048;SDS011;13822;51.568;5.086;2022-08-19T13:00:08;38.17;;;21.40;;
26048;SDS011;13822;51.568;5.086;2022-08-19T13:05:16;39.75;;;20.98;;
26048;SDS011;13822;51.568;5.086;2022-08-19T13:10:28;35.63;;;19.42;;
26048;SDS011;13822;51.568;5.086;2022-08-19T13:15:36;27.95;;;17.38;;
26048;SDS011;13822;51.568;5.086;2022-08-19T13:20:42;23.95;;;13.70;;
26048;SDS011;13822;51.568;5.086;2022-08-19T13:26:00;24.98;;;13.68;;
26048;SDS011;13822;51.568;5.086;2022-08-19T13:31:07;23.00;;;13.50;;
26048;SDS011;13822;51.568;5.086;2022-08-19T13:36:27;28.25;;;16.70;;
26048;SDS011;13822;51.568;5.086;2022-08-19T13:41:30;25.42;;;15.00;;
26048;SDS011;13822;51.568;5.086;2022-08-19T13:46:32;14.20;;;9.00;;
26048;SDS011;13822;51.568;5.086;2022-08-19T13:51:34;12.13;;;8.00;;
26048;SDS011;13822;51.568;5.086;2022-08-19T13:56:43;20.73;;;11.43;;
26048;SDS011;13822;51.568;5.086;2022-08-19T14:01:46;22.27;;;14.35;;
26048;SDS011;13822;51.568;5.086;2022-08-19T14:06:48;25.13;;;14.63;;
26048;SDS011;13822;51.568;5.086;2022-08-19T14:11:51;25.02;;;14.93;;
26048;SDS011;13822;51.568;5.086;2022-08-19T14:16:54;34.03;;;21.67;;
26048;SDS011;13822;51.568;5.086;2022-08-19T14:21:56;32.40;;;20.67;;
26048;SDS011;13822;51.568;5.086;2022-08-19T14:26:58;29.23;;;18.20;;
26048;SDS011;13822;51.568;5.086;2022-08-19T14:32:01;31.55;;;19.00;;
26048;SDS011;13822;51.568;5.086;2022-08-19T14:37:03;30.10;;;19.20;;
26048;SDS011;13822;51.568;5.086;2022-08-19T14:42:08;30.45;;;18.73;;
26048;SDS011;13822;51.568;5.086;2022-08-19T14:47:11;29.20;;;17.50;;
26048;SDS011;13822;51.568;5.086;2022-08-19T14:52:15;31.08;;;17.58;;
26048;SDS011;13822;51.568;5.086;2022-08-19T14:57:17;23.00;;;16.08;;
26048;SDS011;13822;51.568;5.086;2022-08-19T15:02:19;23.73;;;13.93;;
26048;SDS011;13822;51.568;5.086;2022-08-19T15:07:36;22.05;;;11.77;;
26048;SDS011;13822;51.568;5.086;2022-08-19T15:12:39;23.95;;;14.30;;
26048;SDS011;13822;51.568;5.086;2022-08-19T15:17:44;22.02;;;14.13;;
26048;SDS011;13822;51.568;5.086;2022-08-19T15:22:47;25.08;;;15.18;;
26048;SDS011;13822;51.568;5.086;2022-08-19T15:27:50;22.48;;;13.88;;
26048;SDS011;13822;51.568;5.086;2022-08-19T15:32:52;19.42;;;10.32;;
26048;SDS011;13822;51.568;5.086;2022-08-19T15:37:57;19.17;;;9.95;;
26048;SDS011;13822;51.568;5.086;2022-08-19T15:48:02;16.65;;;9.95;;
26048;SDS011;13822;51.568;5.086;2022-08-19T15:53:06;21.20;;;10.38;;
26048;SDS011;13822;51.568;5.086;2022-08-19T15:58:11;19.55;;;10.52;;
26048;SDS011;13822;51.568;5.086;2022-08-19T16:03:33;21.83;;;11.65;;
26048;SDS011;13822;51.568;5.086;2022-08-19T16:08:55;22.13;;;12.18;;
26048;SDS011;13822;51.568;5.086;2022-08-19T16:13:59;23.65;;;13.90;;
26048;SDS011;13822;51.568;5.086;2022-08-19T16:19:03;26.63;;;14.85;;
26048;SDS011;13822;51.568;5.086;2022-08-19T16:24:12;14.00;;;8.90;;
26048;SDS011;13822;51.568;5.086;2022-08-19T16:29:17;14.60;;;7.20;;
26048;SDS011;13822;51.568;5.086;2022-08-19T16:34:39;11.30;;;7.20;;
26048;SDS011;13822;51.568;5.086;2022-08-19T16:39:43;15.73;;;8.40;;
26048;SDS011;13822;51.568;5.086;2022-08-19T16:49:47;12.93;;;9.33;;
26048;SDS011;13822;51.568;5.086;2022-08-19T16:54:55;17.20;;;10.60;;
26048;SDS011;13822;51.568;5.086;2022-08-19T17:04:59;17.63;;;9.77;;
26048;SDS011;13822;51.568;5.086;2022-08-19T17:10:03;15.60;;;10.13;;
26048;SDS011;13822;51.568;5.086;2022-08-19T17:15:07;18.83;;;10.70;;
26048;SDS011;13822;51.568;5.086;2022-08-19T17:20:18;25.05;;;12.18;;
26048;SDS011;13822;51.568;5.086;2022-08-19T17:25:22;19.60;;;11.65;;
26048;SDS011;13822;51.568;5.086;2022-08-19T17:30:29;17.77;;;11.00;;
26048;SDS011;13822;51.568;5.086;2022-08-19T17:35:33;19.65;;;11.63;;
26048;SDS011;13822;51.568;5.086;2022-08-19T17:40:37;18.05;;;10.27;;
26048;SDS011;13822;51.568;5.086;2022-08-19T17:45:43;15.07;;;8.88;;
26048;SDS011;13822;51.568;5.086;2022-08-19T17:50:45;15.60;;;8.85;;
26048;SDS011;13822;51.568;5.086;2022-08-19T17:55:48;13.68;;;8.70;;
26048;SDS011;13822;51.568;5.086;2022-08-19T18:00:51;16.70;;;8.15;;
26048;SDS011;13822;51.568;5.086;2022-08-19T18:05:55;16.77;;;7.80;;
26048;SDS011;13822;51.568;5.086;2022-08-19T18:10:59;12.57;;;7.05;;
26048;SDS011;13822;51.568;5.086;2022-08-19T18:16:01;12.20;;;6.35;;
26048;SDS011;13822;51.568;5.086;2022-08-19T18:21:05;11.63;;;6.13;;
26048;SDS011;13822;51.568;5.086;2022-08-19T18:26:08;11.65;;;6.10;;
26048;SDS011;13822;51.568;5.086;2022-08-19T18:31:12;10.27;;;5.55;;
26048;SDS011;13822;51.568;5.086;2022-08-19T18:41:37;13.07;;;5.80;;
26048;SDS011;13822;51.568;5.086;2022-08-19T18:46:58;9.38;;;6.00;;
26048;SDS011;13822;51.568;5.086;2022-08-19T18:52:19;15.30;;;7.13;;
26048;SDS011;13822;51.568;5.086;2022-08-19T18:57:25;13.52;;;7.80;;
26048;SDS011;13822;51.568;5.086;2022-08-19T19:02:27;14.00;;;7.30;;
26048;SDS011;13822;51.568;5.086;2022-08-19T19:07:29;11.27;;;6.40;;
26048;SDS011;13822;51.568;5.086;2022-08-19T19:12:35;12.75;;;7.63;;
26048;SDS011;13822;51.568;5.086;2022-08-19T19:17:42;16.13;;;8.52;;
26048;SDS011;13822;51.568;5.086;2022-08-19T19:22:46;12.43;;;7.40;;
